CPA885 KLAX-VHHX
Flight info
| Callsign | CPA885 |
|---|---|
| Flight time | N/A |
| Altitude | 32000 |
| Route | MUELR4 RZS J126 SNS J88 PYE DCT REDWD DCT TRYSH DCT GAPNE DCT 45N140W 48N150W 51N160W/N0488F340 DCT RIZON DCT EYETI DCT 51N170E DCT ASPIN/N0485F360 DCT AKISU DCT AGEDI DCT ADGOR R591 ADNAP/N0481F380 OTR5 DOVIX Y886 DAIGO Y88 NAKTU Y12 KOHWA Y54 TURFY Y24 KOSHI Y50 AKVAS/N0482F400 Y50 IGMON A1 ELATO |
| Aircraft | B772/H-SDE2E3FGHIJ5LORVWXY/LB1D1 |
Departure
| Time | 2026-05-04 04:42 |
|---|---|
| Airport | Los Angeles International Airport (KLAX) |
Arrival
| Time | N/A |
|---|---|
| Airport | Hong Kong International Airport Kai Tak (VHHX) |
| Time | Latitude | Longitude | Altitude | Speed | Heading |
|---|---|---|---|---|---|
| 2026-05-04 03:42 | 33.94088 | -118.40933 | 132 ft | 0 kts | 263° |
| 2026-05-04 04:26 | 33.94089 | -118.40926 | 132 ft | 2 kts | 263° |
| 2026-05-04 04:26 | 33.94091 | -118.40908 | 132 ft | 2 kts | 263° |
| 2026-05-04 04:26 | 33.94093 | -118.40891 | 132 ft | 2 kts | 263° |
| 2026-05-04 04:26 | 33.94095 | -118.40873 | 132 ft | 2 kts | 263° |
| 2026-05-04 04:27 | 33.94096 | -118.40856 | 132 ft | 1 kts | 263° |
| 2026-05-04 04:27 | 33.94098 | -118.40844 | 132 ft | 2 kts | 237° |
| 2026-05-04 04:27 | 33.94110 | -118.40834 | 132 ft | 2 kts | 185° |
| 2026-05-04 04:27 | 33.94111 | -118.40833 | 132 ft | 2 kts | 175° |
| 2026-05-04 04:28 | 33.94078 | -118.40829 | 132 ft | 4 kts | 172° |
| 2026-05-04 04:28 | 33.94065 | -118.40827 | 132 ft | 0 kts | 172° |
| 2026-05-04 04:32 | 33.94064 | -118.40827 | 132 ft | 0 kts | 172° |
| 2026-05-04 04:32 | 33.94052 | -118.40826 | 132 ft | 2 kts | 173° |
| 2026-05-04 04:32 | 33.94025 | -118.40823 | 132 ft | 5 kts | 175° |
| 2026-05-04 04:32 | 33.93973 | -118.40817 | 133 ft | 9 kts | 174° |
| 2026-05-04 04:33 | 33.93900 | -118.40817 | 133 ft | 12 kts | 205° |
| 2026-05-04 04:33 | 33.93868 | -118.40921 | 133 ft | 15 kts | 264° |
| 2026-05-04 04:33 | 33.93856 | -118.41056 | 133 ft | 17 kts | 262° |
| 2026-05-04 04:33 | 33.93887 | -118.41167 | 133 ft | 15 kts | 344° |
| 2026-05-04 04:34 | 33.93995 | -118.41183 | 132 ft | 15 kts | 355° |
| 2026-05-04 04:34 | 33.94104 | -118.41196 | 131 ft | 15 kts | 352° |
| 2026-05-04 04:34 | 33.94214 | -118.41213 | 130 ft | 16 kts | 354° |
| 2026-05-04 04:34 | 33.94323 | -118.41228 | 130 ft | 15 kts | 351° |
| 2026-05-04 04:35 | 33.94437 | -118.41248 | 130 ft | 17 kts | 353° |
| 2026-05-04 04:35 | 33.94558 | -118.41264 | 130 ft | 18 kts | 353° |
| 2026-05-04 04:35 | 33.94684 | -118.41284 | 130 ft | 17 kts | 353° |
| 2026-05-04 04:35 | 33.94780 | -118.41280 | 130 ft | 12 kts | 34° |
| 2026-05-04 04:36 | 33.94806 | -118.41184 | 130 ft | 13 kts | 83° |
| 2026-05-04 04:36 | 33.94819 | -118.41050 | 130 ft | 19 kts | 84° |
| 2026-05-04 04:36 | 33.94838 | -118.40863 | 130 ft | 26 kts | 82° |
| 2026-05-04 04:36 | 33.94864 | -118.40606 | 129 ft | 33 kts | 84° |
| 2026-05-04 04:37 | 33.94927 | -118.39997 | 124 ft | 12 kts | 84° |
| 2026-05-04 04:37 | 33.94941 | -118.39940 | 124 ft | 0 kts | 47° |
| 2026-05-04 04:38 | 33.94942 | -118.39940 | 124 ft | 0 kts | 44° |
| 2026-05-04 04:40 | 33.94946 | -118.39936 | 124 ft | 3 kts | 40° |
| 2026-05-04 04:40 | 33.94997 | -118.39915 | 123 ft | 12 kts | 359° |
| 2026-05-04 04:41 | 33.95041 | -118.39957 | 124 ft | 5 kts | 272° |
| 2026-05-04 04:41 | 33.95040 | -118.39971 | 124 ft | 7 kts | 263° |
| 2026-05-04 04:41 | 33.95011 | -118.40247 | 126 ft | 65 kts | 263° |
| 2026-05-04 04:41 | 33.94930 | -118.41039 | 131 ft | 125 kts | 263° |
| 2026-05-04 04:42 | 33.94800 | -118.42318 | 124 ft | 179 kts | 263° |
| 2026-05-04 04:42 | 33.94638 | -118.43892 | 469 ft | 194 kts | 263° |
| 2026-05-04 04:42 | 33.94490 | -118.45486 | 1175 ft | 194 kts | 263° |
| 2026-05-04 04:42 | 33.94287 | -118.47076 | 1560 ft | 201 kts | 258° |
| 2026-05-04 04:43 | 33.94197 | -118.48850 | 1666 ft | 222 kts | 271° |
| 2026-05-04 04:43 | 33.94220 | -118.50796 | 1865 ft | 242 kts | 268° |
| 2026-05-04 04:43 | 33.94099 | -118.52808 | 2393 ft | 245 kts | 264° |
| 2026-05-04 04:43 | 33.93923 | -118.54846 | 2975 ft | 248 kts | 264° |
| 2026-05-04 04:44 | 33.93755 | -118.56918 | 3569 ft | 251 kts | 265° |
| 2026-05-04 04:44 | 33.93590 | -118.59007 | 4119 ft | 255 kts | 265° |
| 2026-05-04 04:44 | 33.93422 | -118.61147 | 4653 ft | 259 kts | 265° |
| 2026-05-04 04:44 | 33.93254 | -118.63280 | 5211 ft | 262 kts | 265° |
| 2026-05-04 04:45 | 33.93085 | -118.65440 | 5820 ft | 261 kts | 264° |
| 2026-05-04 04:45 | 33.92917 | -118.67620 | 6272 ft | 267 kts | 264° |
| 2026-05-04 04:45 | 33.92746 | -118.69832 | 6829 ft | 268 kts | 263° |